createdAt,value
2022-10-17T00:00:14.861Z,101413.69
2022-10-17T00:02:44.023Z,101411.97
2022-10-17T00:05:12.178Z,101413.44
2022-10-17T00:07:40.077Z,101407.84
2022-10-17T00:10:08.862Z,101416.72
2022-10-17T00:12:36.887Z,101413.88
2022-10-17T00:15:06.863Z,101411.47
2022-10-17T00:17:34.938Z,101409.72
2022-10-17T00:20:04.520Z,101414.28
2022-10-17T00:22:32.310Z,101410.63
2022-10-17T00:25:00.155Z,101409.38
2022-10-17T00:27:28.148Z,101405.34
2022-10-17T00:29:56.091Z,101406.81
2022-10-17T00:32:23.898Z,101396.53
2022-10-17T00:34:51.641Z,101400.75
2022-10-17T00:37:20.781Z,101395.94
2022-10-17T00:39:48.608Z,101395.16
2022-10-17T00:42:16.734Z,101397.41
2022-10-17T00:45:17.154Z,101392.47
2022-10-17T00:47:49.720Z,101394.88
2022-10-17T00:50:18.608Z,101390.88
2022-10-17T00:52:49.391Z,101390.41
2022-10-17T00:55:21.426Z,101386.41
2022-10-17T00:57:49.647Z,101389.47
2022-10-17T01:00:18.539Z,101397.22
2022-10-17T01:02:46.775Z,101385.81
2022-10-17T01:05:16.418Z,101385.00
2022-10-17T01:07:45.228Z,101385.31
2022-10-17T01:10:15.654Z,101391.94
2022-10-17T01:12:58.178Z,101388.28
2022-10-17T01:15:36.984Z,101389.88
2022-10-17T01:18:16.468Z,101387.59
2022-10-17T01:21:21.899Z,101386.00
2022-10-17T01:24:25.841Z,101375.31
2022-10-17T01:27:31.036Z,101381.75
2022-10-17T01:30:25.295Z,101379.72
2022-10-17T01:32:59.955Z,101385.47
2022-10-17T01:35:36.932Z,101383.44
2022-10-17T01:38:11.562Z,101384.50
2022-10-17T01:40:45.348Z,101389.06
2022-10-17T01:43:21.524Z,101371.66
2022-10-17T01:45:54.053Z,101375.44
2022-10-17T01:48:26.890Z,101378.41
2022-10-17T01:50:59.845Z,101369.66
2022-10-17T01:53:33.665Z,101373.31
2022-10-17T01:56:04.145Z,101368.78
2022-10-17T01:58:35.294Z,101363.44
2022-10-17T02:01:07.088Z,101358.97
2022-10-17T02:03:36.939Z,101350.53
2022-10-17T02:06:05.286Z,101346.75
2022-10-17T02:08:43.915Z,101345.63
2022-10-17T02:11:16.130Z,101353.97
2022-10-17T02:13:58.312Z,101344.59
2022-10-17T02:16:37.155Z,101340.72
2022-10-17T02:19:21.263Z,101340.84
2022-10-17T02:21:55.315Z,101338.66
2022-10-17T02:24:33.471Z,101342.66
2022-10-17T02:27:09.856Z,101336.47
2022-10-17T02:29:45.372Z,101345.94
2022-10-17T02:32:17.376Z,101346.78
2022-10-17T02:34:50.023Z,101346.44
2022-10-17T02:37:24.218Z,101345.94
2022-10-17T02:39:53.055Z,101349.53
2022-10-17T02:42:22.697Z,101343.22
2022-10-17T02:44:51.134Z,101341.63
2022-10-17T02:47:23.151Z,101345.06
2022-10-17T02:49:54.562Z,101346.56
2022-10-17T02:52:29.484Z,101345.72
2022-10-17T02:55:02.252Z,101345.72
2022-10-17T02:57:35.350Z,101338.66
2022-10-17T03:00:05.240Z,101344.94
2022-10-17T03:02:40.359Z,101342.97
2022-10-17T03:05:10.654Z,101338.78
2022-10-17T03:07:38.708Z,101336.38
2022-10-17T03:10:07.429Z,101332.50
2022-10-17T03:12:35.236Z,101337.28
2022-10-17T03:15:03.100Z,101338.88
2022-10-17T03:17:30.948Z,101345.94
2022-10-17T03:19:59.059Z,101344.34
2022-10-17T03:22:28.504Z,101348.69
2022-10-17T03:24:56.500Z,101347.09
2022-10-17T03:27:24.262Z,101343.56
2022-10-17T03:29:52.039Z,101349.84
2022-10-17T03:32:19.782Z,101349.84
2022-10-17T03:34:47.605Z,101359.66
2022-10-17T03:37:15.378Z,101367.44
2022-10-17T03:39:44.477Z,101357.75
2022-10-17T03:42:12.275Z,101355.81
2022-10-17T03:44:39.996Z,101357.41
2022-10-17T03:47:09.372Z,101355.44
2022-10-17T03:49:39.721Z,101360.13
2022-10-17T03:52:07.790Z,101367.31
2022-10-17T03:54:35.604Z,101365.84
2022-10-17T03:57:04.990Z,101368.81
2022-10-17T03:59:32.923Z,101366.16
2022-10-17T04:02:00.782Z,101378.41
2022-10-17T04:04:28.780Z,101380.91
2022-10-17T04:06:56.529Z,101386.88
2022-10-17T04:09:24.312Z,101384.56
2022-10-17T04:11:52.316Z,101393.25
2022-10-17T04:14:21.436Z,101383.88
2022-10-17T04:16:49.301Z,101384.66
2022-10-17T04:19:17.179Z,101383.19
2022-10-17T04:21:44.959Z,101382.50
2022-10-17T04:24:13.321Z,101382.94
2022-10-17T04:26:41.100Z,101386.50
2022-10-17T04:29:08.852Z,101378.03
2022-10-17T04:31:37.980Z,101384.31
2022-10-17T04:34:05.715Z,101388.66
2022-10-17T04:36:33.536Z,101376.53
2022-10-17T04:39:02.978Z,101377.44
2022-10-17T04:41:30.766Z,101375.16
2022-10-17T04:43:58.635Z,101375.63
2022-10-17T04:46:26.454Z,101380.78
2022-10-17T04:48:56.356Z,101383.88
2022-10-17T04:51:26.507Z,101390.50
2022-10-17T04:53:54.669Z,101390.00
2022-10-17T04:56:24.160Z,101392.31
2022-10-17T04:58:52.291Z,101392.31
2022-10-17T05:01:21.699Z,101394.59
2022-10-17T05:03:49.797Z,101393.00
2022-10-17T05:06:20.281Z,101391.38
2022-10-17T05:08:48.973Z,101396.06
2022-10-17T05:11:19.492Z,101404.78
2022-10-17T05:13:51.659Z,101397.78
2022-10-17T05:16:19.479Z,101409.22
2022-10-17T05:18:52.775Z,101414.25
2022-10-17T05:21:23.473Z,101411.06
2022-10-17T05:23:51.731Z,101407.63
2022-10-17T05:26:20.572Z,101411.53
2022-10-17T05:28:48.799Z,101404.09
2022-10-17T05:31:16.647Z,101414.25
2022-10-17T05:33:44.493Z,101427.63
2022-10-17T05:36:12.358Z,101432.31
2022-10-17T05:38:41.578Z,101440.91
2022-10-17T05:41:10.788Z,101438.53
2022-10-17T05:43:38.605Z,101445.59
2022-10-17T05:46:07.396Z,101444.44
2022-10-17T05:48:35.759Z,101451.22
2022-10-17T05:51:07.832Z,101439.41
2022-10-17T05:53:37.433Z,101430.06
2022-10-17T05:56:09.081Z,101428.59
2022-10-17T05:58:49.782Z,101430.06
2022-10-17T06:01:19.172Z,101433.91
2022-10-17T06:03:47.005Z,101441.97
2022-10-17T06:06:16.011Z,101438.84
2022-10-17T06:08:44.153Z,101437.84
2022-10-17T06:11:14.331Z,101446.50
2022-10-17T06:13:42.481Z,101444.69
2022-10-17T06:16:10.285Z,101447.09
2022-10-17T06:18:38.296Z,101451.88
2022-10-17T06:21:08.042Z,101452.66
2022-10-17T06:23:35.861Z,101460.69
2022-10-17T06:26:06.596Z,101472.47
2022-10-17T06:28:36.537Z,101465.50
2022-10-17T06:31:06.628Z,101470.28
2022-10-17T06:33:34.466Z,101472.66
2022-10-17T06:36:02.904Z,101469.56
2022-10-17T06:38:31.045Z,101461.81
2022-10-17T06:41:04.998Z,101464.19
2022-10-17T06:43:32.770Z,101459.63
2022-10-17T06:46:02.097Z,101469.09
2022-10-17T06:48:29.950Z,101470.34
2022-10-17T06:51:00.170Z,101475.47
2022-10-17T06:53:29.117Z,101485.00
2022-10-17T06:56:01.411Z,101495.19
2022-10-17T06:58:29.582Z,101492.44
2022-10-17T07:01:01.732Z,101497.13
2022-10-17T07:03:29.829Z,101501.81
2022-10-17T07:05:58.402Z,101503.06
2022-10-17T07:08:26.596Z,101499.88
2022-10-17T07:10:54.667Z,101504.56
2022-10-17T07:13:22.483Z,101504.56
2022-10-17T07:15:50.306Z,101507.75
2022-10-17T07:18:19.460Z,101495.63
2022-10-17T07:20:54.550Z,101499.53
2022-10-17T07:23:22.328Z,101505.91
2022-10-17T07:25:50.209Z,101498.59
2022-10-17T07:28:18.309Z,101500.31
2022-10-17T07:30:49.476Z,101504.72
2022-10-17T07:33:21.292Z,101505.72
2022-10-17T07:35:49.054Z,101503.97
2022-10-17T07:38:16.829Z,101512.94
2022-10-17T07:40:44.937Z,101508.31
2022-10-17T07:43:12.747Z,101517.03
2022-10-17T07:45:42.414Z,101514.00
2022-10-17T07:48:10.233Z,101514.91
2022-10-17T07:50:40.389Z,101509.88
2022-10-17T07:53:08.317Z,101514.22
2022-10-17T07:55:37.795Z,101511.56
2022-10-17T07:58:06.212Z,101508.53
2022-10-17T08:00:34.255Z,101507.50
2022-10-17T08:03:02.067Z,101517.09
2022-10-17T08:05:30.276Z,101532.88
2022-10-17T08:07:59.400Z,101537.78
2022-10-17T08:10:29.364Z,101541.06
2022-10-17T08:12:58.039Z,101535.75
2022-10-17T08:15:30.908Z,101542.25
2022-10-17T08:18:00.239Z,101542.78
2022-10-17T08:20:28.327Z,101549.63
2022-10-17T08:22:56.657Z,101558.06
2022-10-17T08:25:26.016Z,101563.34
2022-10-17T08:27:53.850Z,101561.91
2022-10-17T08:30:21.691Z,101560.41
2022-10-17T08:32:49.416Z,101557.03
2022-10-17T08:35:17.505Z,101561.53
2022-10-17T08:37:45.314Z,101549.44
2022-10-17T08:40:20.668Z,101560.19
2022-10-17T08:43:05.767Z,101564.63
2022-10-17T08:45:36.977Z,101577.00
2022-10-17T08:48:10.161Z,101566.03
2022-10-17T08:50:41.579Z,101577.94
2022-10-17T08:53:18.196Z,101581.22
2022-10-17T08:55:48.282Z,101583.78
2022-10-17T08:58:22.160Z,101583.16
2022-10-17T09:00:58.736Z,101580.09
2022-10-17T09:03:43.203Z,101591.13
2022-10-17T09:06:19.433Z,101591.28
2022-10-17T09:08:59.180Z,101601.78
2022-10-17T09:11:43.954Z,101608.91
2022-10-17T09:14:37.045Z,101608.94
2022-10-17T09:17:18.980Z,101611.38
2022-10-17T09:20:01.376Z,101618.63
2022-10-17T09:22:34.982Z,101609.25
2022-10-17T09:25:07.708Z,101612.53
2022-10-17T09:27:37.908Z,101612.25
2022-10-17T09:30:43.664Z,101618.94
2022-10-17T09:33:23.347Z,101626.19
2022-10-17T09:36:04.034Z,101633.31
2022-10-17T09:38:39.207Z,101648.31
2022-10-17T09:41:32.374Z,101654.63
2022-10-17T09:44:18.555Z,101653.84
2022-10-17T09:47:00.565Z,101659.44
2022-10-17T09:49:33.622Z,101668.16
2022-10-17T09:52:02.349Z,101666.56
2022-10-17T09:54:40.902Z,101659.44
2022-10-17T09:57:10.742Z,101669.69
2022-10-17T09:59:40.508Z,101674.47
2022-10-17T10:02:18.381Z,101676.84
2022-10-17T10:05:06.605Z,101678.47
2022-10-17T10:07:37.480Z,101676.16
2022-10-17T10:10:07.931Z,101688.41
2022-10-17T10:12:38.824Z,101686.13
2022-10-17T10:15:33.281Z,101703.31
2022-10-17T10:18:02.984Z,101695.19
2022-10-17T10:20:34.596Z,101695.19
2022-10-17T10:23:14.248Z,101688.78
2022-10-17T10:25:54.746Z,101688.78
2022-10-17T10:28:27.325Z,101688.94
2022-10-17T10:30:56.557Z,101693.72
2022-10-17T10:33:30.984Z,101689.44
2022-10-17T10:36:03.496Z,101697.06
2022-10-17T10:38:33.185Z,101697.25
2022-10-17T10:41:05.859Z,101704.06
2022-10-17T10:43:37.923Z,101713.28
2022-10-17T10:46:17.546Z,101728.47
2022-10-17T10:48:55.113Z,101741.09
2022-10-17T10:51:28.919Z,101739.94
2022-10-17T10:54:06.729Z,101752.00
2022-10-17T10:56:39.747Z,101769.47
2022-10-17T10:59:14.929Z,101768.56
2022-10-17T11:01:49.933Z,101771.63
2022-10-17T11:04:28.395Z,101758.56
2022-10-17T11:07:05.579Z,101752.59
2022-10-17T11:09:46.174Z,101756.97
2022-10-17T11:12:19.867Z,101755.78
2022-10-17T11:14:53.538Z,101752.16
2022-10-17T11:17:30.546Z,101743.38
2022-10-17T11:20:15.070Z,101736.94
2022-10-17T11:22:46.028Z,101723.25
2022-10-17T11:25:29.833Z,101723.25
2022-10-17T11:28:00.985Z,101709.09
2022-10-17T11:30:42.298Z,101710.59
2022-10-17T11:33:14.222Z,101720.50
2022-10-17T11:35:47.181Z,101715.41
2022-10-17T11:38:21.633Z,101729.63
2022-10-17T11:40:52.500Z,101751.00
2022-10-17T11:43:28.170Z,101745.53
2022-10-17T11:46:01.444Z,101756.69
2022-10-17T11:48:33.273Z,101762.63
2022-10-17T11:54:03.496Z,101767.94
2022-10-17T11:56:42.749Z,101767.22
2022-10-17T11:59:40.854Z,101773.38
2022-10-17T12:02:15.587Z,101770.31
2022-10-17T12:04:54.923Z,101765.16
2022-10-17T12:07:35.757Z,101774.25
2022-10-17T12:10:18.861Z,101775.41
2022-10-17T12:12:48.213Z,101777.28
2022-10-17T12:15:30.424Z,101772.50
2022-10-17T12:18:02.319Z,101787.63
2022-10-17T12:20:33.225Z,101783.69
2022-10-17T12:23:07.517Z,101786.81
2022-10-17T12:28:18.501Z,101772.94
2022-10-17T12:30:58.286Z,101779.19
2022-10-17T12:33:33.173Z,101778.03
2022-10-17T12:36:43.244Z,101773.09
2022-10-17T12:39:51.662Z,101780.22
2022-10-17T12:42:47.599Z,101791.25
2022-10-17T12:45:51.512Z,101797.94
2022-10-17T12:48:55.676Z,101795.47
2022-10-17T12:51:40.515Z,101796.63
2022-10-17T12:54:13.453Z,101802.03
2022-10-17T12:56:43.594Z,101797.31
2022-10-17T12:59:17.933Z,101796.88
2022-10-17T13:01:49.048Z,101796.16
2022-10-17T13:04:17.833Z,101804.44
2022-10-17T13:06:48.211Z,101802.84
2022-10-17T13:09:25.490Z,101804.34
2022-10-17T13:11:54.685Z,101806.75
2022-10-17T13:14:25.636Z,101810.66
2022-10-17T13:16:55.695Z,101810.66
2022-10-17T13:19:26.769Z,101813.00
2022-10-17T13:22:00.965Z,101822.44
2022-10-17T13:24:34.102Z,101824.41
2022-10-17T13:27:03.090Z,101830.25
2022-10-17T13:29:32.982Z,101830.56
2022-10-17T13:32:03.906Z,101830.19
2022-10-17T13:34:33.178Z,101836.88
2022-10-17T13:37:03.968Z,101842.75
2022-10-17T13:39:52.765Z,101842.31
2022-10-17T13:42:28.575Z,101845.78
2022-10-17T13:44:59.448Z,101858.34
2022-10-17T13:47:32.279Z,101851.69
2022-10-17T13:50:00.607Z,101855.25
2022-10-17T13:52:30.770Z,101858.44
2022-10-17T13:55:08.767Z,101848.19
2022-10-17T13:57:36.837Z,101846.75
2022-10-17T14:00:12.514Z,101861.09
2022-10-17T14:02:42.547Z,101859.56
2022-10-17T14:05:24.921Z,101865.06
2022-10-17T14:08:12.357Z,101864.03
2022-10-17T14:10:42.105Z,101858.16
2022-10-17T14:13:21.714Z,101866.34
2022-10-17T14:15:50.451Z,101865.28
2022-10-17T14:18:22.936Z,101861.34
2022-10-17T14:21:36.868Z,101871.59
2022-10-17T14:23:43.334Z,101876.38
2022-10-17T14:26:16.770Z,101866.97
2022-10-17T14:28:47.970Z,101864.63
2022-10-17T14:31:26.514Z,101868.56
2022-10-17T14:33:55.464Z,101881.09
2022-10-17T14:36:34.948Z,101881.75
2022-10-17T14:39:03.894Z,101880.59
2022-10-17T14:41:44.048Z,101887.25
2022-10-17T14:44:20.798Z,101902.91
2022-10-17T14:46:52.911Z,101902.13
2022-10-17T14:52:27.414Z,101923.88
2022-10-17T14:54:55.543Z,101931.72
2022-10-17T14:57:27.263Z,101934.09
2022-10-17T14:59:56.262Z,101937.56
2022-10-17T15:02:25.402Z,101948.59
2022-10-17T15:04:53.584Z,101953.69
2022-10-17T15:07:23.666Z,101952.78
2022-10-17T15:09:54.678Z,101955.09
2022-10-17T15:12:25.114Z,101954.41
2022-10-17T15:14:53.537Z,101954.31
2022-10-17T15:17:24.620Z,101967.66
2022-10-17T15:19:52.493Z,101962.94
2022-10-17T15:22:20.442Z,101954.22
2022-10-17T15:24:48.356Z,101957.69
2022-10-17T15:27:19.593Z,101963.91
2022-10-17T15:29:47.779Z,101961.84
2022-10-17T15:32:16.612Z,101954.28
2022-10-17T15:34:44.933Z,101940.50
2022-10-17T15:37:21.927Z,101944.41
2022-10-17T15:39:53.524Z,101957.84
2022-10-17T15:42:27.766Z,101963.72
2022-10-17T15:44:55.781Z,101970.84
2022-10-17T15:47:26.081Z,101983.84
2022-10-17T15:49:54.931Z,101992.47
2022-10-17T15:52:23.365Z,101995.03
2022-10-17T15:54:51.412Z,102004.91
2022-10-17T15:57:22.146Z,102003.31
2022-10-17T15:59:52.418Z,101995.84
2022-10-17T16:02:21.802Z,101998.13
2022-10-17T16:04:50.769Z,102015.03
2022-10-17T16:07:19.486Z,102019.66
2022-10-17T16:09:47.762Z,102028.19
2022-10-17T16:12:18.815Z,102039.22
2022-10-17T16:14:46.758Z,102040.81
2022-10-17T16:17:17.720Z,102043.13
2022-10-17T16:19:45.776Z,102046.84
2022-10-17T16:22:21.828Z,102047.44
2022-10-17T16:24:49.610Z,102037.66
2022-10-17T16:27:17.412Z,102028.94
2022-10-17T16:29:45.342Z,102021.81
2022-10-17T16:32:13.199Z,102008.28
2022-10-17T16:34:42.449Z,102018.41
2022-10-17T16:37:10.337Z,102026.91
2022-10-17T16:39:38.328Z,102036.34
2022-10-17T16:42:06.187Z,102042.53
2022-10-17T16:44:34.070Z,102044.84
2022-10-17T16:47:01.898Z,102052.66
2022-10-17T16:49:29.781Z,102043.47
2022-10-17T16:51:58.969Z,102051.28
2022-10-17T16:54:26.952Z,102052.44
2022-10-17T16:56:54.748Z,102051.28
2022-10-17T16:59:22.602Z,102056.34
2022-10-17T17:01:50.677Z,102063.22
2022-10-17T17:04:18.682Z,102058.88
2022-10-17T17:06:46.618Z,102052.09
2022-10-17T17:09:15.967Z,102046.56
2022-10-17T17:11:43.900Z,102037.97
2022-10-17T17:14:13.053Z,102045.09
2022-10-17T17:16:40.886Z,102050.94
2022-10-17T17:19:12.374Z,102059.53
2022-10-17T17:21:40.730Z,102075.63
2022-10-17T17:24:08.615Z,102072.41
2022-10-17T17:26:37.840Z,102080.19
2022-10-17T17:29:06.195Z,102079.75
2022-10-17T17:31:36.150Z,102072.28
2022-10-17T17:34:04.238Z,102079.41
2022-10-17T17:36:34.081Z,102094.44
2022-10-17T17:39:04.092Z,102086.50
2022-10-17T17:41:32.168Z,102099.84
2022-10-17T17:44:02.147Z,102101.34
2022-10-17T17:46:30.517Z,102099.72
2022-10-17T17:48:58.354Z,102101.69
2022-10-17T17:51:29.393Z,102105.25
2022-10-17T17:53:58.198Z,102101.56
2022-10-17T17:56:29.676Z,102101.09
2022-10-17T17:58:59.764Z,102097.19
2022-10-17T18:01:31.674Z,102105.91
2022-10-17T18:04:00.356Z,102111.75
2022-10-17T18:06:29.334Z,102120.38
2022-10-17T18:08:58.895Z,102119.09
2022-10-17T18:11:28.387Z,102110.72
2022-10-17T18:13:57.327Z,102107.75
2022-10-17T18:16:25.860Z,102116.19
2022-10-17T18:18:55.125Z,102121.59
2022-10-17T18:21:23.410Z,102122.94
2022-10-17T18:23:52.751Z,102123.59
2022-10-17T18:26:20.926Z,102122.81
2022-10-17T18:28:50.030Z,102126.59
2022-10-17T18:31:24.127Z,102121.75
2022-10-17T18:33:54.667Z,102124.41
2022-10-17T18:36:23.235Z,102131.25
2022-10-17T18:38:51.284Z,102130.44
2022-10-17T18:41:21.338Z,102135.59
2022-10-17T18:43:50.770Z,102137.22
2022-10-17T18:46:21.478Z,102132.84
2022-10-17T18:48:50.564Z,102139.63
2022-10-17T18:51:22.956Z,102131.72
2022-10-17T18:53:52.654Z,102141.91
2022-10-17T18:56:21.569Z,102141.09
2022-10-17T18:58:49.469Z,102146.16
2022-10-17T19:01:19.629Z,102144.56
2022-10-17T19:03:49.250Z,102149.91
2022-10-17T19:06:20.494Z,102156.44
2022-10-17T19:08:49.236Z,102158.72
2022-10-17T19:11:20.698Z,102161.47
2022-10-17T19:13:49.423Z,102150.00
2022-10-17T19:16:19.662Z,102153.44
2022-10-17T19:18:50.819Z,102152.28
2022-10-17T19:21:21.976Z,102158.25
2022-10-17T19:23:52.381Z,102153.91
2022-10-17T19:26:21.173Z,102159.41
2022-10-17T19:28:52.250Z,102172.81
2022-10-17T19:31:25.564Z,102166.97
2022-10-17T19:33:55.552Z,102169.88
2022-10-17T19:36:29.075Z,102167.91
2022-10-17T19:39:00.329Z,102168.25
2022-10-17T19:41:29.098Z,102165.16
2022-10-17T19:43:56.987Z,102170.66
2022-10-17T19:46:26.551Z,102172.28
2022-10-17T19:48:54.423Z,102171.81
2022-10-17T19:51:24.967Z,102180.38
2022-10-17T19:53:53.922Z,102180.06
2022-10-17T19:56:22.994Z,102173.41
2022-10-17T19:58:52.148Z,102175.03
2022-10-17T20:01:22.779Z,102174.56
2022-10-17T20:03:50.721Z,102183.97
2022-10-17T20:06:20.319Z,102180.72
2022-10-17T20:08:49.935Z,102179.81
2022-10-17T20:11:21.504Z,102180.81
2022-10-17T20:13:49.794Z,102188.09
2022-10-17T20:16:21.358Z,102184.91
2022-10-17T20:18:50.059Z,102190.28
2022-10-17T20:21:19.636Z,102183.38
2022-10-17T20:23:49.103Z,102183.56
2022-10-17T20:26:26.266Z,102186.50
2022-10-17T20:29:02.593Z,102191.06
2022-10-17T20:31:30.746Z,102186.38
2022-10-17T20:34:00.172Z,102189.94
2022-10-17T20:36:28.070Z,102183.97
2022-10-17T20:38:59.123Z,102187.84
2022-10-17T20:41:28.132Z,102190.91
2022-10-17T20:43:56.489Z,102191.72
2022-10-17T20:46:45.189Z,102197.09
2022-10-17T20:49:16.195Z,102198.56
2022-10-17T20:51:44.336Z,102191.13
2022-10-17T20:54:13.876Z,102183.75
2022-10-17T20:56:41.701Z,102197.72
2022-10-17T20:59:13.624Z,102192.72
2022-10-17T21:01:41.798Z,102188.34
2022-10-17T21:04:40.687Z,102198.06
2022-10-17T21:06:58.322Z,102205.38
2022-10-17T21:09:27.633Z,102199.88
2022-10-17T21:11:56.065Z,102205.38
2022-10-17T21:14:25.115Z,102214.28
2022-10-17T21:16:53.373Z,102216.09
2022-10-17T21:19:22.695Z,102216.88
2022-10-17T21:21:50.752Z,102206.38
2022-10-17T21:24:20.514Z,102221.38
2022-10-17T21:26:55.422Z,102209.25
2022-10-17T21:29:24.309Z,102225.41
2022-10-17T21:31:52.479Z,102214.44
2022-10-17T21:34:22.460Z,102217.47
2022-10-17T21:36:50.424Z,102219.13
2022-10-17T21:39:18.945Z,102218.44
2022-10-17T21:41:46.764Z,102216.16
2022-10-17T21:44:17.977Z,102234.25
2022-10-17T21:46:46.454Z,102232.00
2022-10-17T21:49:16.393Z,102233.63
2022-10-17T21:51:44.692Z,102241.41
2022-10-17T21:54:12.902Z,102251.72
2022-10-17T21:56:40.994Z,102252.97
2022-10-17T21:59:09.888Z,102244.44
2022-10-17T22:01:41.105Z,102250.41
2022-10-17T22:04:11.396Z,102250.41
2022-10-17T22:06:41.589Z,102247.81
2022-10-17T22:09:12.887Z,102245.41
2022-10-17T22:11:40.706Z,102250.09
2022-10-17T22:14:12.709Z,102251.25
2022-10-17T22:16:44.185Z,102253.03
2022-10-17T22:19:12.856Z,102252.91
2022-10-17T22:21:41.040Z,102248.22
2022-10-17T22:24:12.003Z,102254.84
2022-10-17T22:26:40.481Z,102259.84
2022-10-17T22:29:09.399Z,102260.50
2022-10-17T22:31:38.267Z,102259.25
2022-10-17T22:34:08.503Z,102260.03
2022-10-17T22:36:37.163Z,102259.53
2022-10-17T22:39:05.575Z,102262.63
2022-10-17T22:41:33.590Z,102262.50
2022-10-17T22:44:01.408Z,102269.44
2022-10-17T22:46:29.334Z,102274.78
2022-10-17T22:48:57.241Z,102277.53
2022-10-17T22:51:26.457Z,102275.41
2022-10-17T22:53:54.317Z,102273.69
2022-10-17T22:56:23.650Z,102271.91
2022-10-17T22:58:52.329Z,102278.69
2022-10-17T23:01:22.420Z,102284.84
2022-10-17T23:03:50.728Z,102269.81
2022-10-17T23:06:18.881Z,102268.53
2022-10-17T23:08:48.105Z,102267.72
2022-10-17T23:11:15.966Z,102274.03
2022-10-17T23:13:43.754Z,102276.78
2022-10-17T23:16:11.537Z,102280.78
2022-10-17T23:18:39.832Z,102283.25
2022-10-17T23:21:08.681Z,102283.25
2022-10-17T23:23:37.149Z,102282.44
2022-10-17T23:26:08.202Z,102287.59
2022-10-17T23:28:36.205Z,102280.97
2022-10-17T23:31:12.174Z,102284.84
2022-10-17T23:33:41.390Z,102275.94
2022-10-17T23:36:10.619Z,102272.56
2022-10-17T23:38:38.460Z,102280.13
2022-10-17T23:41:07.726Z,102286.09
2022-10-17T23:43:36.025Z,102270.13
2022-10-17T23:46:05.060Z,102281.91
2022-10-17T23:48:33.052Z,102282.22
2022-10-17T23:51:00.926Z,102280.13
2022-10-17T23:53:28.756Z,102283.69
2022-10-17T23:55:56.559Z,102271.91
2022-10-17T23:58:27.406Z,102267.22
